createdAt,value
2018-03-11T00:01:04.408Z,94376.95
2018-03-11T00:03:49.517Z,94378.23
2018-03-11T00:06:19.482Z,94381.36
2018-03-11T00:08:52.295Z,94376.66
2018-03-11T00:11:21.327Z,94378.19
2018-03-11T00:13:50.383Z,94379.59
2018-03-11T00:16:19.395Z,94377.22
2018-03-11T00:21:25.212Z,94365.80
2018-03-11T00:23:59.327Z,94367.31
2018-03-11T00:26:29.351Z,94365.25
2018-03-11T00:29:03.126Z,94357.23
2018-03-11T00:32:03.421Z,94352.69
2018-03-11T00:34:32.479Z,94352.38
2018-03-11T00:37:03.540Z,94356.64
2018-03-11T00:39:33.523Z,94354.61
2018-03-11T00:42:04.448Z,94350.91
2018-03-11T00:44:33.483Z,94346.28
2018-03-11T00:47:03.427Z,94347.64
2018-03-11T00:49:37.002Z,94345.05
2018-03-11T00:52:06.054Z,94344.68
2018-03-11T00:57:10.270Z,94344.34
2018-03-11T00:59:39.311Z,94342.95
2018-03-11T01:02:08.370Z,94336.78
2018-03-11T01:04:38.302Z,94329.28
2018-03-11T01:07:07.343Z,94322.69
2018-03-11T01:09:36.385Z,94321.67
2018-03-11T01:12:05.540Z,94323.48
2018-03-11T01:14:34.576Z,94320.61
2018-03-11T01:17:03.640Z,94317.05
2018-03-11T01:19:32.668Z,94318.09
2018-03-11T01:24:38.814Z,94312.93
2018-03-11T01:27:07.863Z,94308.71
2018-03-11T01:29:36.901Z,94308.15
2018-03-11T01:32:05.939Z,94298.83
2018-03-11T01:34:34.975Z,94295.33
2018-03-11T01:37:04.132Z,94291.93
2018-03-11T01:39:33.176Z,94283.84
2018-03-11T01:42:02.207Z,94275.84
2018-03-11T01:44:31.248Z,94274.19
2018-03-11T01:47:00.290Z,94275.74
2018-03-11T01:49:30.278Z,94272.88
2018-03-11T01:51:59.329Z,94276.16
2018-03-11T01:54:28.366Z,94270.98
2018-03-11T01:56:57.450Z,94270.56
2018-03-11T01:59:26.467Z,94261.92
2018-03-11T02:01:55.510Z,94267.55
2018-03-11T02:04:24.548Z,94267.44
2018-03-11T02:06:53.608Z,94255.89
2018-03-11T02:09:22.640Z,94251.48
2018-03-11T02:11:51.701Z,94250.94
2018-03-11T02:14:20.742Z,94238.52
2018-03-11T02:16:49.774Z,94230.80
2018-03-11T02:19:18.807Z,94229.05
2018-03-11T02:24:24.099Z,94217.73
2018-03-11T02:26:56.870Z,94214.77
2018-03-11T02:29:25.914Z,94207.44
2018-03-11T02:34:30.174Z,94195.45
2018-03-11T02:36:59.219Z,94190.43
2018-03-11T02:39:28.251Z,94191.84
2018-03-11T02:42:10.458Z,94197.06
2018-03-11T02:44:39.503Z,94197.53
2018-03-11T02:47:12.307Z,94200.07
2018-03-11T02:49:41.347Z,94204.22
2018-03-11T02:52:25.463Z,94202.72
2018-03-11T02:55:03.608Z,94204.41
2018-03-11T02:57:33.555Z,94201.23
2018-03-11T03:02:37.815Z,94189.35
2018-03-11T03:05:16.714Z,94182.02
2018-03-11T03:07:45.771Z,94178.28
2018-03-11T03:10:14.815Z,94182.41
2018-03-11T03:12:43.869Z,94176.13
2018-03-11T03:15:48.420Z,94170.10
2018-03-11T03:18:19.746Z,94163.66
2018-03-11T03:20:48.843Z,94162.36
2018-03-11T03:23:30.921Z,94163.03
2018-03-11T03:25:59.960Z,94166.25
2018-03-11T03:28:32.634Z,94160.28
2018-03-11T03:31:01.709Z,94160.89
2018-03-11T03:33:34.326Z,94157.10
2018-03-11T03:36:03.361Z,94157.50
2018-03-11T03:38:46.599Z,94151.81
2018-03-11T03:41:17.591Z,94154.92
2018-03-11T03:43:46.630Z,94149.86
2018-03-11T03:46:16.594Z,94142.70
2018-03-11T03:48:46.527Z,94142.06
2018-03-11T03:51:20.940Z,94138.95
2018-03-11T03:53:49.983Z,94129.41
2018-03-11T03:56:29.778Z,94124.02
2018-03-11T03:58:58.814Z,94124.95
2018-03-11T04:01:46.357Z,94123.90
2018-03-11T04:04:46.228Z,94119.63
2018-03-11T04:07:17.202Z,94124.92
2018-03-11T04:09:48.300Z,94126.25
2018-03-11T04:14:52.557Z,94124.31
2018-03-11T04:17:36.243Z,94114.52
2018-03-11T04:20:10.297Z,94109.06
2018-03-11T04:22:41.230Z,94102.40
2018-03-11T04:25:42.770Z,94095.54
2018-03-11T04:28:30.991Z,94096.19
2018-03-11T04:31:00.046Z,94094.72
2018-03-11T04:33:29.091Z,94096.39
2018-03-11T04:35:58.150Z,94092.48
2018-03-11T04:38:32.631Z,94086.67
2018-03-11T04:41:01.707Z,94082.59
2018-03-11T04:43:35.367Z,94072.52
2018-03-11T04:46:04.413Z,94070.70
2018-03-11T04:48:33.453Z,94071.27
2018-03-11T04:51:02.491Z,94066.13
2018-03-11T04:56:06.819Z,94057.46
2018-03-11T04:58:35.814Z,94065.83
2018-03-11T05:01:04.861Z,94074.95
2018-03-11T05:03:33.899Z,94071.05
2018-03-11T05:06:02.946Z,94068.12
2018-03-11T05:08:31.975Z,94074.89
2018-03-11T05:11:01.019Z,94074.73
2018-03-11T05:13:30.055Z,94073.73
2018-03-11T05:15:59.098Z,94068.20
2018-03-11T05:18:28.147Z,94071.81
2018-03-11T05:20:57.177Z,94077.10
2018-03-11T05:23:26.234Z,94075.77
2018-03-11T05:25:55.275Z,94080.88
2018-03-11T05:28:24.305Z,94079.49
2018-03-11T05:30:53.348Z,94075.45
2018-03-11T05:33:22.379Z,94063.34
2018-03-11T05:38:26.610Z,94057.05
2018-03-11T05:40:55.659Z,94058.83
2018-03-11T05:43:24.701Z,94054.53
2018-03-11T05:48:33.820Z,94051.03
2018-03-11T05:51:04.855Z,94044.55
2018-03-11T05:53:33.894Z,94038.84
2018-03-11T05:56:08.352Z,94025.60
2018-03-11T06:01:13.576Z,94013.58
2018-03-11T06:04:00.490Z,94012.33
2018-03-11T06:06:48.390Z,94012.26
2018-03-11T06:09:17.430Z,94011.23
2018-03-11T06:12:03.561Z,94015.47
2018-03-11T06:14:33.494Z,94009.03
2018-03-11T06:17:02.530Z,94004.69
2018-03-11T06:19:53.270Z,93999.16
2018-03-11T06:22:22.314Z,93984.16
2018-03-11T06:25:08.940Z,93986.34
2018-03-11T06:30:15.223Z,93998.38
2018-03-11T06:35:19.512Z,93988.06
2018-03-11T06:37:52.323Z,93992.51
2018-03-11T06:40:21.363Z,93993.27
2018-03-11T06:43:08.550Z,93990.19
2018-03-11T06:48:13.904Z,93973.75
2018-03-11T06:50:43.875Z,93965.19
2018-03-11T06:53:12.916Z,93945.84
2018-03-11T06:55:42.116Z,93936.48
2018-03-11T06:58:11.188Z,93919.59
2018-03-11T07:00:40.178Z,93906.48
2018-03-11T07:03:09.221Z,93927.77
2018-03-11T07:05:38.274Z,93927.84
2018-03-11T07:08:07.297Z,93904.45
2018-03-11T07:10:36.354Z,93908.31
2018-03-11T07:13:05.438Z,93920.55
2018-03-11T07:15:34.482Z,93913.83
2018-03-11T07:18:03.528Z,93919.59
2018-03-11T07:20:32.572Z,93917.77
2018-03-11T07:23:01.636Z,93907.23
2018-03-11T07:25:30.690Z,93903.20
2018-03-11T07:27:59.718Z,93939.22
2018-03-11T07:30:28.837Z,93941.54
2018-03-11T07:32:57.887Z,93921.22
2018-03-11T07:35:26.935Z,93949.14
2018-03-11T07:37:55.994Z,93966.65
2018-03-11T07:40:25.028Z,93944.24
2018-03-11T07:42:54.073Z,93961.04
2018-03-11T07:45:23.107Z,93961.48
2018-03-11T07:47:52.176Z,93942.81
2018-03-11T07:50:21.219Z,93949.63
2018-03-11T07:52:53.913Z,93972.21
2018-03-11T07:55:22.974Z,93964.91
2018-03-11T07:57:52.027Z,93960.27
2018-03-11T08:00:21.088Z,93963.16
2018-03-11T08:02:50.140Z,93960.98
2018-03-11T08:05:19.202Z,93953.02
2018-03-11T08:10:25.454Z,93964.92
2018-03-11T08:12:54.501Z,93954.90
2018-03-11T08:15:23.561Z,93931.35
2018-03-11T08:17:52.624Z,93935.69
2018-03-11T08:20:21.680Z,93947.80
2018-03-11T08:22:50.726Z,93945.14
2018-03-11T08:25:20.717Z,93935.69
2018-03-11T08:27:49.755Z,93940.53
2018-03-11T08:30:19.709Z,93937.52
2018-03-11T08:32:48.759Z,93937.07
2018-03-11T08:35:17.818Z,93946.76
2018-03-11T08:37:46.876Z,93948.32
2018-03-11T08:40:15.922Z,93942.67
2018-03-11T08:42:44.976Z,93932.78
2018-03-11T08:45:17.587Z,93929.30
2018-03-11T08:47:46.636Z,93925.67
2018-03-11T08:52:51.962Z,93923.98
2018-03-11T08:55:21.028Z,93904.47
2018-03-11T08:57:53.426Z,93891.92
2018-03-11T09:00:22.482Z,93891.54
2018-03-11T09:02:55.089Z,93901.63
2018-03-11T09:05:24.154Z,93906.78
2018-03-11T09:10:28.854Z,93917.88
2018-03-11T09:12:58.194Z,93921.75
2018-03-11T09:15:27.256Z,93921.11
2018-03-11T09:17:56.302Z,93918.85
2018-03-11T09:20:25.360Z,93909.58
2018-03-11T09:22:54.434Z,93903.20
2018-03-11T09:25:23.508Z,93891.62
2018-03-11T09:27:52.559Z,93897.06
2018-03-11T09:30:21.624Z,93892.27
2018-03-11T09:35:26.964Z,93894.05
2018-03-11T09:37:56.011Z,93884.08
2018-03-11T09:40:25.062Z,93879.59
2018-03-11T09:42:54.152Z,93878.50
2018-03-11T09:45:23.420Z,93871.24
2018-03-11T09:47:53.406Z,93866.89
2018-03-11T09:50:25.952Z,93860.38
2018-03-11T09:55:30.275Z,93857.92
2018-03-11T09:57:59.328Z,93850.08
2018-03-11T10:00:28.380Z,93851.33
2018-03-11T10:02:57.432Z,93851.16
2018-03-11T10:05:26.487Z,93843.80
2018-03-11T10:07:55.557Z,93836.66
2018-03-11T10:10:26.085Z,93827.20
2018-03-11T10:12:55.125Z,93823.14
2018-03-11T10:15:24.176Z,93816.23
2018-03-11T10:17:53.227Z,93814.63
2018-03-11T10:20:22.295Z,93808.92
2018-03-11T10:22:51.382Z,93810.69
2018-03-11T10:25:22.628Z,93813.02
2018-03-11T10:27:51.686Z,93810.52
2018-03-11T10:32:56.053Z,93801.24
2018-03-11T10:35:25.121Z,93800.62
2018-03-11T10:37:54.158Z,93799.67
2018-03-11T10:40:23.562Z,93797.16
2018-03-11T10:42:52.946Z,93789.88
2018-03-11T10:45:22.072Z,93786.80
2018-03-11T10:50:26.898Z,93779.70
2018-03-11T10:52:55.957Z,93779.58
2018-03-11T10:55:25.006Z,93779.52
2018-03-11T11:00:29.355Z,93769.38
2018-03-11T11:03:04.871Z,93763.42
2018-03-11T11:05:36.492Z,93760.49
2018-03-11T11:08:05.656Z,93755.99
2018-03-11T11:10:35.616Z,93753.25
2018-03-11T11:13:04.664Z,93747.95
2018-03-11T11:18:12.879Z,93739.94
2018-03-11T11:20:41.923Z,93737.47
2018-03-11T11:23:11.025Z,93736.95
2018-03-11T11:25:40.101Z,93733.98
2018-03-11T11:28:09.141Z,93726.68
2018-03-11T11:33:13.436Z,93718.29
2018-03-11T11:35:42.475Z,93715.25
2018-03-11T11:38:12.425Z,93713.23
2018-03-11T11:40:41.479Z,93711.80
2018-03-11T11:43:10.609Z,93704.87
2018-03-11T11:48:14.883Z,93684.96
2018-03-11T11:53:20.223Z,93672.16
2018-03-11T11:55:49.284Z,93669.59
2018-03-11T11:58:18.344Z,93669.78
2018-03-11T12:05:59.094Z,93653.09
2018-03-11T12:08:28.155Z,93644.33
2018-03-11T12:10:57.195Z,93639.89
2018-03-11T12:13:26.251Z,93632.45
2018-03-11T12:15:55.306Z,93631.31
2018-03-11T12:18:24.360Z,93625.62
2018-03-11T12:20:53.413Z,93620.13
2018-03-11T12:23:22.471Z,93605.64
2018-03-11T12:25:51.531Z,93598.97
2018-03-11T12:28:20.578Z,93594.59
2018-03-11T12:30:49.712Z,93587.16
2018-03-11T12:33:18.808Z,93583.79
2018-03-11T12:38:24.095Z,93567.13
2018-03-11T12:40:53.166Z,93568.45
2018-03-11T12:43:22.262Z,93563.90
2018-03-11T12:45:51.311Z,93573.88
2018-03-11T12:48:24.120Z,93569.61
2018-03-11T12:50:53.247Z,93567.55
2018-03-11T12:53:23.266Z,93567.63
2018-03-11T12:55:52.397Z,93562.72
2018-03-11T13:00:56.760Z,93567.20
2018-03-11T13:03:25.899Z,93567.14
2018-03-11T13:05:55.000Z,93561.67
2018-03-11T13:08:24.086Z,93556.70
2018-03-11T13:10:53.165Z,93552.53
2018-03-11T13:13:22.225Z,93549.59
2018-03-11T13:15:51.271Z,93545.41
2018-03-11T13:18:20.327Z,93545.63
2018-03-11T13:21:11.385Z,93544.52
2018-03-11T13:23:40.438Z,93552.47
2018-03-11T13:26:25.526Z,93550.84
2018-03-11T13:28:57.896Z,93555.03
2018-03-11T13:31:31.202Z,93551.04
2018-03-11T13:36:41.822Z,93562.45
2018-03-11T13:39:33.204Z,93562.24
2018-03-11T13:42:09.509Z,93560.27
2018-03-11T13:44:45.366Z,93556.88
2018-03-11T13:47:20.434Z,93558.13
2018-03-11T13:49:52.816Z,93556.52
2018-03-11T13:52:42.822Z,93558.48
2018-03-11T13:55:17.254Z,93553.95
2018-03-11T14:00:55.600Z,93554.21
2018-03-11T14:03:25.688Z,93557.05
2018-03-11T14:05:54.784Z,93555.59
2018-03-11T14:08:24.913Z,93554.45
2018-03-11T14:10:53.955Z,93548.08
2018-03-11T14:13:23.588Z,93548.30
2018-03-11T14:15:52.644Z,93545.06
2018-03-11T14:18:21.744Z,93543.70
2018-03-11T14:20:50.806Z,93535.61
2018-03-11T14:23:20.815Z,93526.57
2018-03-11T14:25:49.890Z,93524.09
2018-03-11T14:28:19.793Z,93519.38
2018-03-11T14:33:26.612Z,93514.86
2018-03-11T14:35:55.665Z,93507.17
2018-03-11T14:38:25.912Z,93508.20
2018-03-11T14:40:54.963Z,93501.13
2018-03-11T14:43:25.466Z,93494.48
2018-03-11T14:45:54.511Z,93494.06
2018-03-11T14:48:24.832Z,93494.86
2018-03-11T14:50:53.879Z,93487.73
2018-03-11T14:53:37.395Z,93486.66
2018-03-11T14:56:09.843Z,93488.12
2018-03-11T14:58:42.539Z,93489.06
2018-03-11T15:01:14.734Z,93489.05
2018-03-11T15:03:47.661Z,93488.81
2018-03-11T15:06:20.443Z,93482.56
2018-03-11T15:08:53.018Z,93478.84
2018-03-11T15:11:26.982Z,93482.41
2018-03-11T15:13:58.640Z,93482.19
2018-03-11T15:16:31.290Z,93487.17
2018-03-11T15:19:01.280Z,93484.64
2018-03-11T15:24:05.617Z,93483.39
2018-03-11T15:26:34.655Z,93484.55
2018-03-11T15:29:03.756Z,93487.97
2018-03-11T15:31:33.659Z,93484.67
2018-03-11T15:34:02.714Z,93481.25
2018-03-11T15:36:31.769Z,93478.67
2018-03-11T15:39:00.832Z,93472.84
2018-03-11T15:41:29.894Z,93476.85
2018-03-11T15:43:58.972Z,93479.02
2018-03-11T15:46:28.024Z,93477.91
2018-03-11T15:51:32.370Z,93472.98
2018-03-11T15:54:01.428Z,93472.78
2018-03-11T15:56:30.473Z,93471.77
2018-03-11T15:58:59.574Z,93470.20
2018-03-11T16:01:28.668Z,93468.44
2018-03-11T16:04:01.068Z,93467.54
2018-03-11T16:06:30.111Z,93465.67
2018-03-11T16:08:59.176Z,93465.98
2018-03-11T16:11:28.326Z,93464.19
2018-03-11T16:13:57.964Z,93461.70
2018-03-11T16:16:27.139Z,93453.63
2018-03-11T16:18:56.271Z,93449.81
2018-03-11T16:21:25.446Z,93446.41
2018-03-11T16:23:54.491Z,93446.87
2018-03-11T16:26:23.532Z,93444.24
2018-03-11T16:28:52.589Z,93443.17
2018-03-11T16:31:21.660Z,93439.85
2018-03-11T16:33:50.720Z,93441.39
2018-03-11T16:36:19.776Z,93436.67
2018-03-11T16:38:48.859Z,93429.96
2018-03-11T16:41:20.175Z,93430.42
2018-03-11T16:46:25.433Z,93432.95
2018-03-11T16:51:30.726Z,93441.64
2018-03-11T16:53:59.768Z,93435.02
2018-03-11T16:56:28.812Z,93441.62
2018-03-11T16:58:57.864Z,93440.48
2018-03-11T17:01:26.919Z,93439.23
2018-03-11T17:06:31.222Z,93433.52
2018-03-11T17:11:36.501Z,93443.41
2018-03-11T17:14:05.580Z,93450.25
2018-03-11T17:16:35.496Z,93455.22
2018-03-11T17:19:04.564Z,93458.48
2018-03-11T17:21:34.528Z,93463.63
2018-03-11T17:24:03.768Z,93471.19
2018-03-11T17:26:32.917Z,93470.88
2018-03-11T17:29:05.331Z,93468.27
2018-03-11T17:31:36.868Z,93466.61
2018-03-11T17:34:05.923Z,93469.59
2018-03-11T17:36:35.725Z,93462.22
2018-03-11T17:39:04.776Z,93457.59
2018-03-11T17:41:33.811Z,93454.46
2018-03-11T17:44:02.849Z,93458.41
2018-03-11T17:46:31.920Z,93459.11
2018-03-11T17:49:00.975Z,93458.12
2018-03-11T17:51:30.043Z,93460.73
2018-03-11T17:53:59.161Z,93461.78
2018-03-11T17:56:28.238Z,93460.75
2018-03-11T17:58:57.292Z,93461.54
2018-03-11T18:01:29.837Z,93458.28
2018-03-11T18:03:58.995Z,93460.45
2018-03-11T18:06:28.264Z,93454.00
2018-03-11T18:08:57.598Z,93450.42
2018-03-11T18:11:30.062Z,93452.66
2018-03-11T18:13:59.202Z,93450.18
2018-03-11T18:19:04.717Z,93453.16
2018-03-11T18:21:33.787Z,93450.92
2018-03-11T18:24:02.832Z,93446.81
2018-03-11T18:26:31.998Z,93444.98
2018-03-11T18:29:01.995Z,93443.53
2018-03-11T18:31:31.031Z,93446.02
2018-03-11T18:34:00.191Z,93441.31
2018-03-11T18:39:05.539Z,93440.21
2018-03-11T18:41:34.616Z,93441.44
2018-03-11T18:44:03.676Z,93443.98
2018-03-11T18:46:33.681Z,93440.78
2018-03-11T18:49:02.741Z,93446.15
2018-03-11T18:51:31.843Z,93450.23
2018-03-11T18:54:00.861Z,93452.75
2018-03-11T18:59:05.185Z,93447.80
2018-03-11T19:01:35.226Z,93452.95
2018-03-11T19:04:04.407Z,93455.67
2018-03-11T19:06:33.584Z,93451.34
2018-03-11T19:09:02.645Z,93455.72
2018-03-11T19:11:31.769Z,93465.27
2018-03-11T19:14:00.790Z,93472.14
2018-03-11T19:16:30.291Z,93462.95
2018-03-11T19:18:59.332Z,93453.41
2018-03-11T19:24:04.138Z,93452.03
2018-03-11T19:26:33.277Z,93446.30
2018-03-11T19:29:02.382Z,93441.65
2018-03-11T19:31:31.447Z,93445.67
2018-03-11T19:34:00.623Z,93448.00
2018-03-11T19:36:29.670Z,93438.11
2018-03-11T19:38:58.956Z,93433.98
2018-03-11T19:41:28.082Z,93429.73
2018-03-11T19:43:57.695Z,93430.73
2018-03-11T19:46:26.859Z,93435.58
2018-03-11T19:48:55.911Z,93441.18
2018-03-11T19:51:25.202Z,93441.13
2018-03-11T19:53:55.541Z,93439.49
2018-03-11T19:56:25.216Z,93437.97
2018-03-11T19:58:54.894Z,93434.90
2018-03-11T20:01:24.789Z,93432.52
2018-03-11T20:03:54.254Z,93433.03
2018-03-11T20:06:26.003Z,93432.70
2018-03-11T20:08:55.968Z,93438.52
2018-03-11T20:11:26.148Z,93442.03
2018-03-11T20:13:55.195Z,93440.12
2018-03-11T20:16:25.238Z,93440.70
2018-03-11T20:18:54.281Z,93451.97
2018-03-11T20:21:23.328Z,93453.34
2018-03-11T20:23:52.465Z,93454.47
2018-03-11T20:26:21.499Z,93452.19
2018-03-11T20:28:50.549Z,93449.19
2018-03-11T20:31:19.694Z,93452.25
2018-03-11T20:33:48.768Z,93453.30
2018-03-11T20:36:17.811Z,93447.53
2018-03-11T20:38:46.862Z,93451.42
2018-03-11T20:44:09.135Z,93442.05
2018-03-11T20:46:38.188Z,93441.84
2018-03-11T20:49:11.100Z,93434.05
2018-03-11T20:51:40.297Z,93437.70
2018-03-11T20:54:13.625Z,93439.42
2018-03-11T20:59:18.155Z,93431.19
2018-03-11T21:01:47.498Z,93429.95
2018-03-11T21:04:16.669Z,93430.56
2018-03-11T21:09:22.588Z,93427.51
2018-03-11T21:11:51.632Z,93427.29
2018-03-11T21:16:56.804Z,93443.00
2018-03-11T21:22:02.543Z,93442.70
2018-03-11T21:24:32.711Z,93446.43
2018-03-11T21:27:02.758Z,93454.16
2018-03-11T21:29:35.602Z,93451.30
2018-03-11T21:32:04.812Z,93450.89
2018-03-11T21:34:33.906Z,93452.63
2018-03-11T21:37:02.979Z,93455.50
2018-03-11T21:39:35.841Z,93457.81
2018-03-11T21:42:04.908Z,93452.30
2018-03-11T21:44:33.959Z,93449.65
2018-03-11T21:47:11.892Z,93450.77
2018-03-11T21:49:45.927Z,93453.19
2018-03-11T21:54:50.140Z,93451.73
2018-03-11T21:57:33.201Z,93449.33
2018-03-11T22:00:13.814Z,93446.36
2018-03-11T22:02:54.111Z,93442.27
2018-03-11T22:05:23.688Z,93434.66
2018-03-11T22:07:52.740Z,93439.05
2018-03-11T22:10:21.825Z,93440.77
2018-03-11T22:12:50.905Z,93439.64
2018-03-11T22:15:19.999Z,93442.02
2018-03-11T22:17:49.265Z,93445.87
2018-03-11T22:20:18.339Z,93444.55
2018-03-11T22:22:47.357Z,93436.64
2018-03-11T22:25:17.324Z,93438.00
2018-03-11T22:27:46.410Z,93444.44
2018-03-11T22:33:01.797Z,93438.36
2018-03-11T22:35:30.895Z,93435.29
2018-03-11T22:38:15.336Z,93437.23
2018-03-11T22:40:49.418Z,93441.91
2018-03-11T22:43:18.520Z,93432.61
2018-03-11T22:45:48.637Z,93425.13
2018-03-11T22:48:17.723Z,93425.45
2018-03-11T22:50:53.749Z,93426.92
2018-03-11T22:53:22.859Z,93424.04
2018-03-11T22:55:51.922Z,93419.08
2018-03-11T22:58:21.030Z,93409.17
2018-03-11T23:00:57.457Z,93417.33
2018-03-11T23:03:26.514Z,93409.61
2018-03-11T23:06:06.088Z,93405.16
2018-03-11T23:08:35.144Z,93405.31
2018-03-11T23:11:16.714Z,93401.78
2018-03-11T23:16:20.940Z,93401.69
2018-03-11T23:19:07.558Z,93401.34
2018-03-11T23:21:36.618Z,93399.46
2018-03-11T23:24:05.665Z,93400.84
2018-03-11T23:26:34.695Z,93391.06
2018-03-11T23:29:03.740Z,93388.19
2018-03-11T23:31:32.803Z,93392.49
2018-03-11T23:34:01.868Z,93391.93
2018-03-11T23:36:30.931Z,93393.77
2018-03-11T23:38:59.995Z,93387.92
2018-03-11T23:41:29.042Z,93381.67
2018-03-11T23:43:58.098Z,93374.91
2018-03-11T23:46:27.143Z,93371.27
2018-03-11T23:48:56.190Z,93372.48
2018-03-11T23:51:25.322Z,93364.00
2018-03-11T23:53:54.363Z,93368.25
2018-03-11T23:56:23.436Z,93370.84
2018-03-11T23:58:52.610Z,93370.50
